sensor_id;sensor_type;location;lat;lon;timestamp;pressure;altitude;pressure_sealevel;temperature;humidity
41703;BME280;861;48.808;9.006;2024-03-06T00:00:01;97121.19;;;7.62;76.31
41703;BME280;861;48.808;9.006;2024-03-06T00:02:29;97126.97;;;8.13;73.88
41703;BME280;861;48.808;9.006;2024-03-06T00:04:56;97125.47;;;8.19;73.98
41703;BME280;861;48.808;9.006;2024-03-06T00:07:22;97120.13;;;8.52;72.32
41703;BME280;861;48.808;9.006;2024-03-06T00:09:49;97121.69;;;8.53;72.49
41703;BME280;861;48.808;9.006;2024-03-06T00:12:16;97132.59;;;8.27;73.73
41703;BME280;861;48.808;9.006;2024-03-06T00:14:42;97126.66;;;8.47;72.96
41703;BME280;861;48.808;9.006;2024-03-06T00:17:09;97123.63;;;8.23;73.31
41703;BME280;861;48.808;9.006;2024-03-06T00:19:36;97127.69;;;8.10;74.43
41703;BME280;861;48.808;9.006;2024-03-06T00:22:02;97130.72;;;7.78;75.43
41703;BME280;861;48.808;9.006;2024-03-06T00:24:29;97130.63;;;7.71;75.59
41703;BME280;861;48.808;9.006;2024-03-06T00:26:56;97129.97;;;7.81;75.15
41703;BME280;861;48.808;9.006;2024-03-06T00:29:22;97139.94;;;8.26;73.71
41703;BME280;861;48.808;9.006;2024-03-06T00:31:49;97129.97;;;8.67;72.26
41703;BME280;861;48.808;9.006;2024-03-06T00:34:16;97140.41;;;8.06;73.93
41703;BME280;861;48.808;9.006;2024-03-06T00:36:44;97137.38;;;7.58;75.77
41703;BME280;861;48.808;9.006;2024-03-06T00:39:11;97140.50;;;7.87;75.02
41703;BME280;861;48.808;9.006;2024-03-06T00:41:41;97137.38;;;7.58;76.17
41703;BME280;861;48.808;9.006;2024-03-06T00:44:08;97133.84;;;7.54;76.38
41703;BME280;861;48.808;9.006;2024-03-06T00:46:35;97127.88;;;7.94;74.95
41703;BME280;861;48.808;9.006;2024-03-06T00:49:01;97125.44;;;8.45;73.62
41703;BME280;861;48.808;9.006;2024-03-06T00:51:28;97117.38;;;8.48;73.43
41703;BME280;861;48.808;9.006;2024-03-06T00:53:55;97114.34;;;8.53;73.11
41703;BME280;861;48.808;9.006;2024-03-06T00:56:21;97120.75;;;8.71;72.97
41703;BME280;861;48.808;9.006;2024-03-06T00:58:48;97107.53;;;8.70;72.47
41703;BME280;861;48.808;9.006;2024-03-06T01:01:16;97115.81;;;8.80;72.22
41703;BME280;861;48.808;9.006;2024-03-06T01:03:43;97121.19;;;8.77;72.32
41703;BME280;861;48.808;9.006;2024-03-06T01:06:09;97118.22;;;8.89;72.18
41703;BME280;861;48.808;9.006;2024-03-06T01:08:37;97122.91;;;8.92;72.04
41703;BME280;861;48.808;9.006;2024-03-06T01:11:03;97120.13;;;8.85;72.25
41703;BME280;861;48.808;9.006;2024-03-06T01:13:31;97124.56;;;8.67;72.62
41703;BME280;861;48.808;9.006;2024-03-06T01:15:58;97135.44;;;8.37;73.54
41703;BME280;861;48.808;9.006;2024-03-06T01:18:24;97134.03;;;8.21;74.73
41703;BME280;861;48.808;9.006;2024-03-06T01:20:51;97126.19;;;8.38;74.42
41703;BME280;861;48.808;9.006;2024-03-06T01:23:17;97130.59;;;8.53;73.63
41703;BME280;861;48.808;9.006;2024-03-06T01:25:44;97126.88;;;8.65;73.22
41703;BME280;861;48.808;9.006;2024-03-06T01:28:10;97131.78;;;8.52;73.75
41703;BME280;861;48.808;9.006;2024-03-06T01:30:37;97130.00;;;8.37;74.19
41703;BME280;861;48.808;9.006;2024-03-06T01:33:03;97131.59;;;8.38;74.40
41703;BME280;861;48.808;9.006;2024-03-06T01:35:31;97129.66;;;8.39;74.32
41703;BME280;861;48.808;9.006;2024-03-06T01:37:58;97139.94;;;8.56;74.02
41703;BME280;861;48.808;9.006;2024-03-06T01:40:24;97138.28;;;8.77;73.43
41703;BME280;861;48.808;9.006;2024-03-06T01:42:51;97124.91;;;8.95;72.68
41703;BME280;861;48.808;9.006;2024-03-06T01:45:17;97123.41;;;9.04;72.22
41703;BME280;861;48.808;9.006;2024-03-06T01:47:44;97121.94;;;8.74;73.06
41703;BME280;861;48.808;9.006;2024-03-06T01:50:11;97121.47;;;8.68;73.74
41703;BME280;861;48.808;9.006;2024-03-06T01:52:42;97124.50;;;8.60;73.79
41703;BME280;861;48.808;9.006;2024-03-06T01:55:11;97121.66;;;8.86;72.44
41703;BME280;861;48.808;9.006;2024-03-06T01:57:40;97123.84;;;8.73;73.67
41703;BME280;861;48.808;9.006;2024-03-06T02:00:09;97130.59;;;8.53;73.76
41703;BME280;861;48.808;9.006;2024-03-06T02:02:43;97131.72;;;8.82;73.23
41703;BME280;861;48.808;9.006;2024-03-06T02:05:11;97135.13;;;8.75;73.29
41703;BME280;861;48.808;9.006;2024-03-06T02:07:39;97136.47;;;8.55;74.19
41703;BME280;861;48.808;9.006;2024-03-06T02:10:09;97135.47;;;8.70;73.94
41703;BME280;861;48.808;9.006;2024-03-06T02:12:37;97137.03;;;8.71;73.47
41703;BME280;861;48.808;9.006;2024-03-06T02:15:04;97141.88;;;8.88;73.19
41703;BME280;861;48.808;9.006;2024-03-06T02:17:32;97138.38;;;8.88;73.36
41703;BME280;861;48.808;9.006;2024-03-06T02:19:58;97135.78;;;8.98;72.90
41703;BME280;861;48.808;9.006;2024-03-06T02:22:25;97134.03;;;9.16;72.07
41703;BME280;861;48.808;9.006;2024-03-06T02:24:51;97132.81;;;9.14;72.27
41703;BME280;861;48.808;9.006;2024-03-06T02:27:18;97131.88;;;8.96;72.76
41703;BME280;861;48.808;9.006;2024-03-06T02:29:45;97133.19;;;9.09;72.65
41703;BME280;861;48.808;9.006;2024-03-06T02:32:13;97131.41;;;8.87;73.05
41703;BME280;861;48.808;9.006;2024-03-06T02:34:40;97131.09;;;8.95;72.68
41703;BME280;861;48.808;9.006;2024-03-06T02:37:07;97139.41;;;9.13;72.19
41703;BME280;861;48.808;9.006;2024-03-06T02:39:34;97137.03;;;9.08;71.94
41703;BME280;861;48.808;9.006;2024-03-06T02:42:00;97136.94;;;8.97;72.63
41703;BME280;861;48.808;9.006;2024-03-06T02:44:27;97145.72;;;8.87;73.38
41703;BME280;861;48.808;9.006;2024-03-06T02:46:54;97146.53;;;8.88;73.86
41703;BME280;861;48.808;9.006;2024-03-06T02:49:20;97145.19;;;9.08;73.40
41703;BME280;861;48.808;9.006;2024-03-06T02:51:47;97142.59;;;9.22;72.76
41703;BME280;861;48.808;9.006;2024-03-06T02:54:13;97143.69;;;9.14;73.20
41703;BME280;861;48.808;9.006;2024-03-06T02:56:40;97140.97;;;9.10;73.60
41703;BME280;861;48.808;9.006;2024-03-06T02:59:07;97146.56;;;9.31;72.90
41703;BME280;861;48.808;9.006;2024-03-06T03:01:33;97146.19;;;9.29;72.06
41703;BME280;861;48.808;9.006;2024-03-06T03:04:00;97136.03;;;9.26;72.31
41703;BME280;861;48.808;9.006;2024-03-06T03:06:27;97150.69;;;9.15;72.79
41703;BME280;861;48.808;9.006;2024-03-06T03:08:55;97142.28;;;9.27;72.54
41703;BME280;861;48.808;9.006;2024-03-06T03:11:22;97150.94;;;9.40;71.49
41703;BME280;861;48.808;9.006;2024-03-06T03:13:49;97145.22;;;9.11;72.78
41703;BME280;861;48.808;9.006;2024-03-06T03:16:19;97134.25;;;9.41;71.82
41703;BME280;861;48.808;9.006;2024-03-06T03:18:47;97142.28;;;9.27;71.72
41703;BME280;861;48.808;9.006;2024-03-06T03:21:15;97142.41;;;9.01;72.95
41703;BME280;861;48.808;9.006;2024-03-06T03:23:42;97150.09;;;8.95;73.89
41703;BME280;861;48.808;9.006;2024-03-06T03:26:10;97150.88;;;8.96;73.91
41703;BME280;861;48.808;9.006;2024-03-06T03:28:41;97150.56;;;9.01;73.74
41703;BME280;861;48.808;9.006;2024-03-06T03:31:09;97152.97;;;9.09;73.51
41703;BME280;861;48.808;9.006;2024-03-06T03:33:39;97162.31;;;9.12;73.50
41703;BME280;861;48.808;9.006;2024-03-06T03:36:08;97151.00;;;9.06;73.36
41703;BME280;861;48.808;9.006;2024-03-06T03:38:38;97145.03;;;8.94;72.93
41703;BME280;861;48.808;9.006;2024-03-06T03:41:10;97149.47;;;9.09;73.27
41703;BME280;861;48.808;9.006;2024-03-06T03:43:40;97151.03;;;9.10;73.29
41703;BME280;861;48.808;9.006;2024-03-06T03:46:07;97147.06;;;9.00;72.99
41703;BME280;861;48.808;9.006;2024-03-06T03:48:34;97146.63;;;8.95;73.29
41703;BME280;861;48.808;9.006;2024-03-06T03:51:05;97150.13;;;8.99;73.15
41703;BME280;861;48.808;9.006;2024-03-06T03:53:36;97156.19;;;9.18;72.98
41703;BME280;861;48.808;9.006;2024-03-06T03:56:03;97164.53;;;9.03;73.28
41703;BME280;861;48.808;9.006;2024-03-06T03:58:30;97162.69;;;8.77;74.52
41703;BME280;861;48.808;9.006;2024-03-06T04:00:57;97174.69;;;8.73;75.17
41703;BME280;861;48.808;9.006;2024-03-06T04:03:25;97162.31;;;9.15;72.93
41703;BME280;861;48.808;9.006;2024-03-06T04:05:51;97176.56;;;9.02;73.78
41703;BME280;861;48.808;9.006;2024-03-06T04:08:18;97178.66;;;8.82;74.24
41703;BME280;861;48.808;9.006;2024-03-06T04:10:45;97183.91;;;8.68;74.90
41703;BME280;861;48.808;9.006;2024-03-06T04:13:12;97182.09;;;8.79;74.65
41703;BME280;861;48.808;9.006;2024-03-06T04:15:41;97178.75;;;8.89;74.43
41703;BME280;861;48.808;9.006;2024-03-06T04:18:07;97179.16;;;8.91;74.36
41703;BME280;861;48.808;9.006;2024-03-06T04:20:34;97183.00;;;8.87;74.63
41703;BME280;861;48.808;9.006;2024-03-06T04:23:01;97180.28;;;8.90;74.26
41703;BME280;861;48.808;9.006;2024-03-06T04:25:28;97179.53;;;8.90;74.39
41703;BME280;861;48.808;9.006;2024-03-06T04:27:54;97191.94;;;8.91;74.51
41703;BME280;861;48.808;9.006;2024-03-06T04:30:21;97180.38;;;8.97;73.33
41703;BME280;861;48.808;9.006;2024-03-06T04:32:48;97188.91;;;8.96;74.03
41703;BME280;861;48.808;9.006;2024-03-06T04:35:15;97196.25;;;8.95;74.64
41703;BME280;861;48.808;9.006;2024-03-06T04:37:41;97196.34;;;9.02;74.17
41703;BME280;861;48.808;9.006;2024-03-06T04:40:10;97194.28;;;8.92;74.64
41703;BME280;861;48.808;9.006;2024-03-06T04:42:37;97190.97;;;9.09;73.76
41703;BME280;861;48.808;9.006;2024-03-06T04:45:22;97200.94;;;8.98;74.58
41703;BME280;861;48.808;9.006;2024-03-06T04:47:48;97204.00;;;8.93;74.43
41703;BME280;861;48.808;9.006;2024-03-06T04:50:15;97202.81;;;8.91;74.69
41703;BME280;861;48.808;9.006;2024-03-06T04:52:42;97212.59;;;8.99;73.88
41703;BME280;861;48.808;9.006;2024-03-06T04:55:09;97211.75;;;8.91;74.82
41703;BME280;861;48.808;9.006;2024-03-06T04:57:42;97213.22;;;8.85;75.13
41703;BME280;861;48.808;9.006;2024-03-06T05:00:11;97212.06;;;8.86;74.60
41703;BME280;861;48.808;9.006;2024-03-06T05:02:39;97218.69;;;8.89;74.63
41703;BME280;861;48.808;9.006;2024-03-06T05:05:06;97222.13;;;8.86;74.94
41703;BME280;861;48.808;9.006;2024-03-06T05:07:34;97223.91;;;8.71;75.79
41703;BME280;861;48.808;9.006;2024-03-06T05:10:01;97229.72;;;8.73;75.70
41703;BME280;861;48.808;9.006;2024-03-06T05:12:28;97224.63;;;8.68;75.94
41703;BME280;861;48.808;9.006;2024-03-06T05:14:56;97230.88;;;8.72;76.01
41703;BME280;861;48.808;9.006;2024-03-06T05:17:22;97237.47;;;8.71;76.30
41703;BME280;861;48.808;9.006;2024-03-06T05:19:50;97236.06;;;8.84;75.77
41703;BME280;861;48.808;9.006;2024-03-06T05:22:17;97244.03;;;8.70;76.45
41703;BME280;861;48.808;9.006;2024-03-06T05:24:44;97233.72;;;8.83;76.31
41703;BME280;861;48.808;9.006;2024-03-06T05:27:11;97240.97;;;8.72;76.84
41703;BME280;861;48.808;9.006;2024-03-06T05:29:43;97237.25;;;8.83;76.56
41703;BME280;861;48.808;9.006;2024-03-06T05:32:10;97246.88;;;8.77;76.34
41703;BME280;861;48.808;9.006;2024-03-06T05:34:36;97246.69;;;8.63;77.13
41703;BME280;861;48.808;9.006;2024-03-06T05:37:03;97249.28;;;8.56;77.62
41703;BME280;861;48.808;9.006;2024-03-06T05:39:31;97248.00;;;8.76;75.75
41703;BME280;861;48.808;9.006;2024-03-06T05:42:06;97248.28;;;8.68;75.92
41703;BME280;861;48.808;9.006;2024-03-06T05:44:34;97243.22;;;8.40;76.79
41703;BME280;861;48.808;9.006;2024-03-06T05:47:02;97250.97;;;8.16;79.08
41703;BME280;861;48.808;9.006;2024-03-06T05:49:30;97250.13;;;8.34;77.42
41703;BME280;861;48.808;9.006;2024-03-06T05:51:56;97253.53;;;8.54;79.50
41703;BME280;861;48.808;9.006;2024-03-06T05:54:24;97252.84;;;9.23;79.90
41703;BME280;861;48.808;9.006;2024-03-06T05:56:52;97252.09;;;9.59;76.44
41703;BME280;861;48.808;9.006;2024-03-06T05:59:20;97251.38;;;9.66;75.03
41703;BME280;861;48.808;9.006;2024-03-06T06:01:47;97258.41;;;9.70;74.78
41703;BME280;861;48.808;9.006;2024-03-06T06:04:15;97260.09;;;9.45;74.26
41703;BME280;861;48.808;9.006;2024-03-06T06:06:42;97267.09;;;9.13;74.50
41703;BME280;861;48.808;9.006;2024-03-06T06:09:08;97268.09;;;9.01;74.90
41703;BME280;861;48.808;9.006;2024-03-06T06:11:43;97271.31;;;8.81;75.68
41703;BME280;861;48.808;9.006;2024-03-06T06:14:11;97277.84;;;8.73;76.09
41703;BME280;861;48.808;9.006;2024-03-06T06:16:39;97274.69;;;8.71;76.52
41703;BME280;861;48.808;9.006;2024-03-06T06:19:07;97278.81;;;8.61;76.56
41703;BME280;861;48.808;9.006;2024-03-06T06:21:34;97285.72;;;8.55;76.76
41703;BME280;861;48.808;9.006;2024-03-06T06:24:03;97291.78;;;8.71;76.75
41703;BME280;861;48.808;9.006;2024-03-06T06:26:31;97296.22;;;9.16;78.20
41703;BME280;861;48.808;9.006;2024-03-06T06:28:59;97295.78;;;9.10;75.42
41703;BME280;861;48.808;9.006;2024-03-06T06:31:25;97295.06;;;8.87;75.78
41703;BME280;861;48.808;9.006;2024-03-06T06:33:54;97305.66;;;8.66;76.78
41703;BME280;861;48.808;9.006;2024-03-06T06:36:21;97303.97;;;8.58;77.62
41703;BME280;861;48.808;9.006;2024-03-06T06:38:48;97306.16;;;8.75;76.58
41703;BME280;861;48.808;9.006;2024-03-06T06:41:16;97306.03;;;8.65;77.78
41703;BME280;861;48.808;9.006;2024-03-06T06:43:43;97316.53;;;8.70;77.27
41703;BME280;861;48.808;9.006;2024-03-06T06:46:10;97305.28;;;8.68;77.23
41703;BME280;861;48.808;9.006;2024-03-06T06:48:37;97314.00;;;8.54;78.16
41703;BME280;861;48.808;9.006;2024-03-06T06:51:04;97311.84;;;8.41;79.13
41703;BME280;861;48.808;9.006;2024-03-06T06:53:31;97317.66;;;8.39;79.31
41703;BME280;861;48.808;9.006;2024-03-06T06:55:59;97314.66;;;8.48;79.42
41703;BME280;861;48.808;9.006;2024-03-06T06:58:25;97314.00;;;8.54;78.97
41703;BME280;861;48.808;9.006;2024-03-06T07:00:53;97319.19;;;8.40;80.33
41703;BME280;861;48.808;9.006;2024-03-06T07:03:20;97314.63;;;8.70;81.45
41703;BME280;861;48.808;9.006;2024-03-06T07:05:48;97321.91;;;8.92;79.00
41703;BME280;861;48.808;9.006;2024-03-06T07:08:15;97317.84;;;8.79;79.45
41703;BME280;861;48.808;9.006;2024-03-06T07:10:41;97318.69;;;8.57;79.64
41703;BME280;861;48.808;9.006;2024-03-06T07:13:08;97327.41;;;8.44;80.42
41703;BME280;861;48.808;9.006;2024-03-06T07:15:34;97331.44;;;8.53;79.91
41703;BME280;861;48.808;9.006;2024-03-06T07:18:01;97334.06;;;8.24;80.80
41703;BME280;861;48.808;9.006;2024-03-06T07:20:27;97328.38;;;8.32;81.23
41703;BME280;861;48.808;9.006;2024-03-06T07:22:55;97334.22;;;8.34;81.17
41703;BME280;861;48.808;9.006;2024-03-06T07:25:21;97335.84;;;8.16;81.41
41703;BME280;861;48.808;9.006;2024-03-06T07:27:48;97329.88;;;8.30;82.05
41703;BME280;861;48.808;9.006;2024-03-06T07:30:17;97330.47;;;8.20;82.38
41703;BME280;861;48.808;9.006;2024-03-06T07:32:43;97343.19;;;8.16;82.89
41703;BME280;861;48.808;9.006;2024-03-06T07:35:10;97343.63;;;8.40;81.33
41703;BME280;861;48.808;9.006;2024-03-06T07:37:38;97338.00;;;8.07;81.32
41703;BME280;861;48.808;9.006;2024-03-06T07:40:06;97343.47;;;8.11;82.92
41703;BME280;861;48.808;9.006;2024-03-06T07:42:35;97345.66;;;8.24;82.07
41703;BME280;861;48.808;9.006;2024-03-06T07:45:05;97348.38;;;8.24;82.26
41703;BME280;861;48.808;9.006;2024-03-06T07:47:35;97345.84;;;8.12;81.75
41703;BME280;861;48.808;9.006;2024-03-06T07:50:06;97351.56;;;8.07;83.11
41703;BME280;861;48.808;9.006;2024-03-06T07:52:33;97353.59;;;8.14;82.76
41703;BME280;861;48.808;9.006;2024-03-06T07:55:00;97354.50;;;8.21;81.62
41703;BME280;861;48.808;9.006;2024-03-06T07:57:26;97352.06;;;8.13;82.59
41703;BME280;861;48.808;9.006;2024-03-06T07:59:53;97362.81;;;7.87;83.68
41703;BME280;861;48.808;9.006;2024-03-06T08:02:21;97363.41;;;7.99;84.44
41703;BME280;861;48.808;9.006;2024-03-06T08:04:49;97362.91;;;8.13;82.92
41703;BME280;861;48.808;9.006;2024-03-06T08:07:16;97368.91;;;8.03;84.06
41703;BME280;861;48.808;9.006;2024-03-06T08:09:42;97367.53;;;8.12;84.45
41703;BME280;861;48.808;9.006;2024-03-06T08:12:09;97379.38;;;8.23;83.36
41703;BME280;861;48.808;9.006;2024-03-06T08:14:36;97373.44;;;8.18;84.05
41703;BME280;861;48.808;9.006;2024-03-06T08:17:02;97373.59;;;8.25;83.85
41703;BME280;861;48.808;9.006;2024-03-06T08:19:29;97374.50;;;8.32;84.27
41703;BME280;861;48.808;9.006;2024-03-06T08:21:56;97374.03;;;8.49;84.04
41703;BME280;861;48.808;9.006;2024-03-06T08:24:22;97373.31;;;8.56;85.43
41703;BME280;861;48.808;9.006;2024-03-06T08:26:49;97374.78;;;8.50;84.94
41703;BME280;861;48.808;9.006;2024-03-06T08:29:15;97377.31;;;8.62;85.21
41703;BME280;861;48.808;9.006;2024-03-06T08:31:42;97378.22;;;8.69;83.59
41703;BME280;861;48.808;9.006;2024-03-06T08:34:08;97376.97;;;8.63;84.19
41703;BME280;861;48.808;9.006;2024-03-06T08:36:35;97389.13;;;8.73;82.22
41703;BME280;861;48.808;9.006;2024-03-06T08:39:01;97378.66;;;8.49;83.87
41703;BME280;861;48.808;9.006;2024-03-06T08:41:28;97392.03;;;8.61;84.50
41703;BME280;861;48.808;9.006;2024-03-06T08:43:54;97383.72;;;8.50;84.47
41703;BME280;861;48.808;9.006;2024-03-06T08:46:21;97394.38;;;8.62;85.45
41703;BME280;861;48.808;9.006;2024-03-06T08:48:47;97389.34;;;8.87;83.37
41703;BME280;861;48.808;9.006;2024-03-06T08:51:14;97393.72;;;8.69;84.17
41703;BME280;861;48.808;9.006;2024-03-06T08:53:40;97394.13;;;8.71;83.43
41703;BME280;861;48.808;9.006;2024-03-06T08:56:07;97398.16;;;8.80;84.57
41703;BME280;861;48.808;9.006;2024-03-06T08:58:33;97401.47;;;8.93;81.43
41703;BME280;861;48.808;9.006;2024-03-06T09:01:00;97397.75;;;8.78;81.85
41703;BME280;861;48.808;9.006;2024-03-06T09:03:30;97406.91;;;8.70;82.65
41703;BME280;861;48.808;9.006;2024-03-06T09:05:58;97408.00;;;8.66;83.15
41703;BME280;861;48.808;9.006;2024-03-06T09:08:26;97405.50;;;8.54;83.23
41703;BME280;861;48.808;9.006;2024-03-06T09:10:52;97411.38;;;8.59;83.52
41703;BME280;861;48.808;9.006;2024-03-06T09:13:19;97411.94;;;8.46;83.30
41703;BME280;861;48.808;9.006;2024-03-06T09:15:45;97410.63;;;8.36;83.63
41703;BME280;861;48.808;9.006;2024-03-06T09:18:12;97413.03;;;8.41;84.24
41703;BME280;861;48.808;9.006;2024-03-06T09:20:38;97415.97;;;8.33;84.24
41703;BME280;861;48.808;9.006;2024-03-06T09:23:05;97408.75;;;8.21;86.10
41703;BME280;861;48.808;9.006;2024-03-06T09:25:32;97409.41;;;8.34;85.75
41703;BME280;861;48.808;9.006;2024-03-06T09:27:59;97414.28;;;8.25;86.52
41703;BME280;861;48.808;9.006;2024-03-06T09:30:26;97416.69;;;8.30;85.87
41703;BME280;861;48.808;9.006;2024-03-06T09:32:54;97419.88;;;8.35;85.44
41703;BME280;861;48.808;9.006;2024-03-06T09:35:20;97427.69;;;8.59;85.21
41703;BME280;861;48.808;9.006;2024-03-06T09:37:47;97423.94;;;8.45;86.52
41703;BME280;861;48.808;9.006;2024-03-06T09:40:22;97436.78;;;8.48;87.20
41703;BME280;861;48.808;9.006;2024-03-06T09:42:51;97431.88;;;8.79;86.06
41703;BME280;861;48.808;9.006;2024-03-06T09:45:18;97432.00;;;8.86;83.65
41703;BME280;861;48.808;9.006;2024-03-06T09:47:50;97432.88;;;8.68;85.09
41703;BME280;861;48.808;9.006;2024-03-06T09:50:23;97436.25;;;8.84;84.62
41703;BME280;861;48.808;9.006;2024-03-06T09:52:55;97432.47;;;8.92;82.62
41703;BME280;861;48.808;9.006;2024-03-06T09:55:23;97431.72;;;8.69;83.85
41703;BME280;861;48.808;9.006;2024-03-06T09:57:52;97436.25;;;8.61;85.21
41703;BME280;861;48.808;9.006;2024-03-06T10:00:19;97441.78;;;8.68;84.68
41703;BME280;861;48.808;9.006;2024-03-06T10:02:58;97435.91;;;8.89;84.82
41703;BME280;861;48.808;9.006;2024-03-06T10:05:28;97439.53;;;8.96;84.48
41703;BME280;861;48.808;9.006;2024-03-06T10:07:56;97441.34;;;8.89;84.32
41703;BME280;861;48.808;9.006;2024-03-06T10:10:25;97432.66;;;8.80;85.33
41703;BME280;861;48.808;9.006;2024-03-06T10:12:53;97430.44;;;8.85;84.09
41703;BME280;861;48.808;9.006;2024-03-06T10:15:22;97440.72;;;8.99;84.68
41703;BME280;861;48.808;9.006;2024-03-06T10:17:50;97439.22;;;9.01;84.72
41703;BME280;861;48.808;9.006;2024-03-06T10:20:23;97432.38;;;9.11;83.63
41703;BME280;861;48.808;9.006;2024-03-06T10:22:54;97436.81;;;9.22;82.58
41703;BME280;861;48.808;9.006;2024-03-06T10:25:23;97428.81;;;9.07;82.23
41703;BME280;861;48.808;9.006;2024-03-06T10:28:09;97431.03;;;8.98;82.76
41703;BME280;861;48.808;9.006;2024-03-06T10:30:40;97427.16;;;8.99;82.66
41703;BME280;861;48.808;9.006;2024-03-06T10:33:14;97429.22;;;8.83;83.20
41703;BME280;861;48.808;9.006;2024-03-06T10:35:46;97440.16;;;8.64;85.12
41703;BME280;861;48.808;9.006;2024-03-06T10:38:15;97439.34;;;8.86;84.75
41703;BME280;861;48.808;9.006;2024-03-06T10:40:43;97446.16;;;8.73;83.65
41703;BME280;861;48.808;9.006;2024-03-06T10:43:11;97436.47;;;8.75;84.45
41703;BME280;861;48.808;9.006;2024-03-06T10:46:01;97443.91;;;8.78;86.47
41703;BME280;861;48.808;9.006;2024-03-06T10:48:38;97442.81;;;8.83;84.61
41703;BME280;861;48.808;9.006;2024-03-06T10:51:08;97443.00;;;8.93;83.47
41703;BME280;861;48.808;9.006;2024-03-06T10:53:39;97444.25;;;8.77;85.40
41703;BME280;861;48.808;9.006;2024-03-06T10:56:09;97454.31;;;8.76;86.04
41703;BME280;861;48.808;9.006;2024-03-06T10:58:39;97446.84;;;8.92;83.31
41703;BME280;861;48.808;9.006;2024-03-06T11:01:08;97449.75;;;8.80;82.66
41703;BME280;861;48.808;9.006;2024-03-06T11:03:37;97450.59;;;8.84;83.43
41703;BME280;861;48.808;9.006;2024-03-06T11:06:05;97453.34;;;8.88;82.63
41703;BME280;861;48.808;9.006;2024-03-06T11:08:33;97450.84;;;8.76;83.32
41703;BME280;861;48.808;9.006;2024-03-06T11:11:21;97454.81;;;8.82;84.38
41703;BME280;861;48.808;9.006;2024-03-06T11:13:50;97444.47;;;8.65;84.52
41703;BME280;861;48.808;9.006;2024-03-06T11:16:28;97452.03;;;8.56;85.99
41703;BME280;861;48.808;9.006;2024-03-06T11:19:07;97444.97;;;8.51;85.05
41703;BME280;861;48.808;9.006;2024-03-06T11:21:46;97446.50;;;8.49;84.89
41703;BME280;861;48.808;9.006;2024-03-06T11:24:33;97450.97;;;8.60;85.86
41703;BME280;861;48.808;9.006;2024-03-06T11:27:03;97449.75;;;8.58;85.80
41703;BME280;861;48.808;9.006;2024-03-06T11:30:19;97455.28;;;8.42;88.05
41703;BME280;861;48.808;9.006;2024-03-06T11:33:03;97451.06;;;8.90;84.57
41703;BME280;861;48.808;9.006;2024-03-06T11:35:31;97452.56;;;8.87;83.93
41703;BME280;861;48.808;9.006;2024-03-06T11:38:00;97453.84;;;8.71;84.43
41703;BME280;861;48.808;9.006;2024-03-06T11:40:27;97458.56;;;8.74;85.30
41703;BME280;861;48.808;9.006;2024-03-06T11:42:54;97461.47;;;8.62;85.59
41703;BME280;861;48.808;9.006;2024-03-06T11:45:20;97458.19;;;8.75;85.48
41703;BME280;861;48.808;9.006;2024-03-06T11:48:04;97458.69;;;8.58;84.83
41703;BME280;861;48.808;9.006;2024-03-06T11:50:30;97455.50;;;8.34;87.80
41703;BME280;861;48.808;9.006;2024-03-06T11:53:00;97458.66;;;8.36;89.76
41703;BME280;861;48.808;9.006;2024-03-06T11:55:26;97459.38;;;8.78;85.17
41703;BME280;861;48.808;9.006;2024-03-06T11:57:54;97457.59;;;8.63;85.35
41703;BME280;861;48.808;9.006;2024-03-06T12:00:24;97460.91;;;8.53;86.79
41703;BME280;861;48.808;9.006;2024-03-06T12:02:52;97460.00;;;8.68;86.22
41703;BME280;861;48.808;9.006;2024-03-06T12:05:18;97455.69;;;8.63;86.10
41703;BME280;861;48.808;9.006;2024-03-06T12:07:50;97460.97;;;8.56;86.78
41703;BME280;861;48.808;9.006;2024-03-06T12:10:18;97461.19;;;8.48;88.47
41703;BME280;861;48.808;9.006;2024-03-06T12:12:45;97462.34;;;8.47;87.95
41703;BME280;861;48.808;9.006;2024-03-06T12:15:14;97461.31;;;8.32;88.89
41703;BME280;861;48.808;9.006;2024-03-06T12:17:49;97462.44;;;8.73;86.28
41703;BME280;861;48.808;9.006;2024-03-06T12:20:18;97460.38;;;8.66;86.64
41703;BME280;861;48.808;9.006;2024-03-06T12:22:53;97468.66;;;8.51;87.02
41703;BME280;861;48.808;9.006;2024-03-06T12:25:24;97463.78;;;8.41;88.98
41703;BME280;861;48.808;9.006;2024-03-06T12:27:54;97460.53;;;8.54;88.95
41703;BME280;861;48.808;9.006;2024-03-06T12:30:23;97463.19;;;8.73;86.03
41703;BME280;861;48.808;9.006;2024-03-06T12:33:02;97453.72;;;8.64;88.28
41703;BME280;861;48.808;9.006;2024-03-06T12:35:31;97465.00;;;8.88;85.94
41703;BME280;861;48.808;9.006;2024-03-06T12:37:58;97461.28;;;8.96;85.89
41703;BME280;861;48.808;9.006;2024-03-06T12:40:25;97462.00;;;8.71;86.53
41703;BME280;861;48.808;9.006;2024-03-06T12:42:54;97466.56;;;8.67;85.26
41703;BME280;861;48.808;9.006;2024-03-06T12:45:21;97474.75;;;8.48;87.41
41703;BME280;861;48.808;9.006;2024-03-06T12:47:48;97452.75;;;8.53;87.08
41703;BME280;861;48.808;9.006;2024-03-06T12:50:15;97456.25;;;8.53;88.08
41703;BME280;861;48.808;9.006;2024-03-06T12:52:42;97455.69;;;8.63;87.49
41703;BME280;861;48.808;9.006;2024-03-06T12:55:12;97457.91;;;8.80;85.75
41703;BME280;861;48.808;9.006;2024-03-06T12:57:40;97459.72;;;8.73;86.44
41703;BME280;861;48.808;9.006;2024-03-06T13:00:07;97459.13;;;8.60;86.87
41703;BME280;861;48.808;9.006;2024-03-06T13:02:43;97456.63;;;8.52;87.05
41703;BME280;861;48.808;9.006;2024-03-06T13:05:10;97455.91;;;8.55;86.89
41703;BME280;861;48.808;9.006;2024-03-06T13:07:37;97457.72;;;8.47;86.86
41703;BME280;861;48.808;9.006;2024-03-06T13:10:04;97452.66;;;8.46;88.34
41703;BME280;861;48.808;9.006;2024-03-06T13:12:31;97455.38;;;8.46;88.78
41703;BME280;861;48.808;9.006;2024-03-06T13:14:58;97457.97;;;8.61;87.83
41703;BME280;861;48.808;9.006;2024-03-06T13:17:24;97450.34;;;8.48;87.24
41703;BME280;861;48.808;9.006;2024-03-06T13:19:51;97453.13;;;8.51;87.90
41703;BME280;861;48.808;9.006;2024-03-06T13:22:17;97448.00;;;8.46;88.29
41703;BME280;861;48.808;9.006;2024-03-06T13:24:45;97456.81;;;8.62;88.29
41703;BME280;861;48.808;9.006;2024-03-06T13:27:12;97447.84;;;8.58;88.85
41703;BME280;861;48.808;9.006;2024-03-06T13:29:39;97447.47;;;8.60;89.50
41703;BME280;861;48.808;9.006;2024-03-06T13:32:07;97442.94;;;8.90;87.32
41703;BME280;861;48.808;9.006;2024-03-06T13:34:34;97440.78;;;9.02;85.86
41703;BME280;861;48.808;9.006;2024-03-06T13:37:01;97438.31;;;8.94;87.54